sensor_id;sensor_type;location;lat;lon;timestamp;P1;durP1;ratioP1;P2;durP2;ratioP2
84254;SDS011;74400;44.692;18.998;2023-12-20T00:01:47;53.00;;;22.85;;
84254;SDS011;74400;44.692;18.998;2023-12-20T00:04:13;52.17;;;22.17;;
84254;SDS011;74400;44.692;18.998;2023-12-20T00:06:38;47.40;;;22.42;;
84254;SDS011;74400;44.692;18.998;2023-12-20T00:09:04;45.50;;;20.67;;
84254;SDS011;74400;44.692;18.998;2023-12-20T00:11:30;37.30;;;18.90;;
84254;SDS011;74400;44.692;18.998;2023-12-20T00:13:55;39.75;;;18.63;;
84254;SDS011;74400;44.692;18.998;2023-12-20T00:16:21;38.67;;;18.98;;
84254;SDS011;74400;44.692;18.998;2023-12-20T00:18:46;38.50;;;18.38;;
84254;SDS011;74400;44.692;18.998;2023-12-20T00:21:12;38.22;;;18.17;;
84254;SDS011;74400;44.692;18.998;2023-12-20T00:23:38;39.70;;;18.67;;
84254;SDS011;74400;44.692;18.998;2023-12-20T00:26:03;37.72;;;18.42;;
84254;SDS011;74400;44.692;18.998;2023-12-20T00:28:29;40.75;;;19.27;;
84254;SDS011;74400;44.692;18.998;2023-12-20T00:30:55;46.17;;;19.75;;
84254;SDS011;74400;44.692;18.998;2023-12-20T00:33:20;44.92;;;20.60;;
84254;SDS011;74400;44.692;18.998;2023-12-20T00:35:46;40.60;;;19.15;;
84254;SDS011;74400;44.692;18.998;2023-12-20T00:38:12;38.72;;;17.67;;
84254;SDS011;74400;44.692;18.998;2023-12-20T00:40:37;40.97;;;18.77;;
84254;SDS011;74400;44.692;18.998;2023-12-20T00:43:03;35.72;;;18.73;;
84254;SDS011;74400;44.692;18.998;2023-12-20T00:45:29;35.42;;;18.00;;
84254;SDS011;74400;44.692;18.998;2023-12-20T00:47:54;32.33;;;16.83;;
84254;SDS011;74400;44.692;18.998;2023-12-20T00:50:20;30.17;;;15.70;;
84254;SDS011;74400;44.692;18.998;2023-12-20T00:52:47;33.13;;;16.20;;
84254;SDS011;74400;44.692;18.998;2023-12-20T00:55:13;36.10;;;16.98;;
84254;SDS011;74400;44.692;18.998;2023-12-20T00:57:39;39.88;;;18.08;;
84254;SDS011;74400;44.692;18.998;2023-12-20T01:00:05;45.70;;;20.98;;
84254;SDS011;74400;44.692;18.998;2023-12-20T01:02:31;38.65;;;20.17;;
84254;SDS011;74400;44.692;18.998;2023-12-20T01:04:57;35.20;;;17.35;;
84254;SDS011;74400;44.692;18.998;2023-12-20T01:07:22;43.33;;;19.67;;
84254;SDS011;74400;44.692;18.998;2023-12-20T01:09:48;35.20;;;16.50;;
84254;SDS011;74400;44.692;18.998;2023-12-20T01:12:14;31.67;;;15.55;;
84254;SDS011;74400;44.692;18.998;2023-12-20T01:14:39;31.10;;;16.05;;
84254;SDS011;74400;44.692;18.998;2023-12-20T01:17:05;32.75;;;16.58;;
84254;SDS011;74400;44.692;18.998;2023-12-20T01:19:31;30.42;;;15.80;;
84254;SDS011;74400;44.692;18.998;2023-12-20T01:21:56;28.63;;;14.50;;
84254;SDS011;74400;44.692;18.998;2023-12-20T01:24:22;28.65;;;14.13;;
84254;SDS011;74400;44.692;18.998;2023-12-20T01:26:47;31.42;;;16.30;;
84254;SDS011;74400;44.692;18.998;2023-12-20T01:29:13;35.25;;;15.45;;
84254;SDS011;74400;44.692;18.998;2023-12-20T01:31:40;30.92;;;16.02;;
84254;SDS011;74400;44.692;18.998;2023-12-20T01:34:06;34.38;;;17.13;;
84254;SDS011;74400;44.692;18.998;2023-12-20T01:36:31;32.33;;;15.18;;
84254;SDS011;74400;44.692;18.998;2023-12-20T01:38:57;26.33;;;14.40;;
84254;SDS011;74400;44.692;18.998;2023-12-20T01:41:23;24.60;;;12.35;;
84254;SDS011;74400;44.692;18.998;2023-12-20T01:43:48;24.58;;;12.15;;
84254;SDS011;74400;44.692;18.998;2023-12-20T01:46:14;20.90;;;11.32;;
84254;SDS011;74400;44.692;18.998;2023-12-20T01:48:40;16.85;;;9.75;;
84254;SDS011;74400;44.692;18.998;2023-12-20T01:51:06;23.17;;;11.75;;
84254;SDS011;74400;44.692;18.998;2023-12-20T01:53:33;21.90;;;10.98;;
84254;SDS011;74400;44.692;18.998;2023-12-20T01:55:59;18.77;;;9.93;;
84254;SDS011;74400;44.692;18.998;2023-12-20T01:58:25;17.65;;;9.23;;
84254;SDS011;74400;44.692;18.998;2023-12-20T02:00:51;19.13;;;10.38;;
84254;SDS011;74400;44.692;18.998;2023-12-20T02:03:17;23.73;;;11.70;;
84254;SDS011;74400;44.692;18.998;2023-12-20T02:05:44;22.65;;;10.60;;
84254;SDS011;74400;44.692;18.998;2023-12-20T02:08:11;18.23;;;10.65;;
84254;SDS011;74400;44.692;18.998;2023-12-20T02:10:36;23.33;;;10.45;;
84254;SDS011;74400;44.692;18.998;2023-12-20T02:13:03;16.42;;;9.88;;
84254;SDS011;74400;44.692;18.998;2023-12-20T02:15:29;20.02;;;9.95;;
84254;SDS011;74400;44.692;18.998;2023-12-20T02:17:55;17.50;;;10.25;;
84254;SDS011;74400;44.692;18.998;2023-12-20T02:20:21;19.45;;;10.30;;
84254;SDS011;74400;44.692;18.998;2023-12-20T02:22:46;18.40;;;9.60;;
84254;SDS011;74400;44.692;18.998;2023-12-20T02:25:12;15.00;;;8.88;;
84254;SDS011;74400;44.692;18.998;2023-12-20T02:27:38;18.88;;;9.75;;
84254;SDS011;74400;44.692;18.998;2023-12-20T02:30:04;16.52;;;9.27;;
84254;SDS011;74400;44.692;18.998;2023-12-20T02:32:31;15.82;;;8.73;;
84254;SDS011;74400;44.692;18.998;2023-12-20T02:34:57;17.52;;;8.60;;
84254;SDS011;74400;44.692;18.998;2023-12-20T02:37:23;16.42;;;7.70;;
84254;SDS011;74400;44.692;18.998;2023-12-20T02:39:49;17.75;;;8.98;;
84254;SDS011;74400;44.692;18.998;2023-12-20T02:42:15;16.13;;;8.63;;
84254;SDS011;74400;44.692;18.998;2023-12-20T02:44:40;16.90;;;8.48;;
84254;SDS011;74400;44.692;18.998;2023-12-20T02:47:06;17.58;;;8.73;;
84254;SDS011;74400;44.692;18.998;2023-12-20T02:49:32;15.43;;;8.52;;
84254;SDS011;74400;44.692;18.998;2023-12-20T02:51:57;17.48;;;9.90;;
84254;SDS011;74400;44.692;18.998;2023-12-20T02:54:23;16.83;;;8.23;;
84254;SDS011;74400;44.692;18.998;2023-12-20T02:56:49;18.33;;;9.10;;
84254;SDS011;74400;44.692;18.998;2023-12-20T02:59:15;18.00;;;8.77;;
84254;SDS011;74400;44.692;18.998;2023-12-20T03:04:06;17.77;;;9.73;;
84254;SDS011;74400;44.692;18.998;2023-12-20T03:06:32;15.93;;;9.13;;
84254;SDS011;74400;44.692;18.998;2023-12-20T03:08:58;14.38;;;8.13;;
84254;SDS011;74400;44.692;18.998;2023-12-20T03:11:26;13.63;;;8.07;;
84254;SDS011;74400;44.692;18.998;2023-12-20T03:13:52;18.15;;;9.38;;
84254;SDS011;74400;44.692;18.998;2023-12-20T03:16:18;18.00;;;8.48;;
84254;SDS011;74400;44.692;18.998;2023-12-20T03:18:44;21.10;;;9.38;;
84254;SDS011;74400;44.692;18.998;2023-12-20T03:21:09;21.42;;;10.15;;
84254;SDS011;74400;44.692;18.998;2023-12-20T03:23:35;18.55;;;8.70;;
84254;SDS011;74400;44.692;18.998;2023-12-20T03:26:00;16.40;;;8.25;;
84254;SDS011;74400;44.692;18.998;2023-12-20T03:28:27;18.05;;;9.23;;
84254;SDS011;74400;44.692;18.998;2023-12-20T03:30:53;19.02;;;9.45;;
84254;SDS011;74400;44.692;18.998;2023-12-20T03:33:18;16.50;;;8.93;;
84254;SDS011;74400;44.692;18.998;2023-12-20T03:35:44;16.98;;;8.13;;
84254;SDS011;74400;44.692;18.998;2023-12-20T03:38:10;16.10;;;8.00;;
84254;SDS011;74400;44.692;18.998;2023-12-20T03:40:36;15.88;;;8.68;;
84254;SDS011;74400;44.692;18.998;2023-12-20T03:43:01;12.43;;;7.65;;
84254;SDS011;74400;44.692;18.998;2023-12-20T03:45:27;19.17;;;8.30;;
84254;SDS011;74400;44.692;18.998;2023-12-20T03:47:53;14.18;;;7.38;;
84254;SDS011;74400;44.692;18.998;2023-12-20T03:50:21;16.25;;;7.78;;
84254;SDS011;74400;44.692;18.998;2023-12-20T03:52:48;15.95;;;7.97;;
84254;SDS011;74400;44.692;18.998;2023-12-20T03:55:13;18.50;;;7.97;;
84254;SDS011;74400;44.692;18.998;2023-12-20T03:57:40;18.13;;;8.02;;
84254;SDS011;74400;44.692;18.998;2023-12-20T04:00:07;14.77;;;7.80;;
84254;SDS011;74400;44.692;18.998;2023-12-20T04:02:39;19.05;;;8.05;;
84254;SDS011;74400;44.692;18.998;2023-12-20T04:05:06;11.70;;;7.50;;
84254;SDS011;74400;44.692;18.998;2023-12-20T04:07:33;12.70;;;7.28;;
84254;SDS011;74400;44.692;18.998;2023-12-20T04:09:59;12.35;;;6.70;;
84254;SDS011;74400;44.692;18.998;2023-12-20T04:12:26;16.40;;;6.93;;
84254;SDS011;74400;44.692;18.998;2023-12-20T04:14:52;12.32;;;6.90;;
84254;SDS011;74400;44.692;18.998;2023-12-20T04:17:18;11.68;;;6.22;;
84254;SDS011;74400;44.692;18.998;2023-12-20T04:19:44;11.40;;;6.28;;
84254;SDS011;74400;44.692;18.998;2023-12-20T04:22:10;10.90;;;6.75;;
84254;SDS011;74400;44.692;18.998;2023-12-20T04:24:35;14.85;;;7.20;;
84254;SDS011;74400;44.692;18.998;2023-12-20T04:27:01;12.95;;;7.55;;
84254;SDS011;74400;44.692;18.998;2023-12-20T04:29:27;22.83;;;7.55;;
84254;SDS011;74400;44.692;18.998;2023-12-20T04:31:53;10.57;;;6.43;;
84254;SDS011;74400;44.692;18.998;2023-12-20T04:34:19;16.23;;;6.80;;
84254;SDS011;74400;44.692;18.998;2023-12-20T04:36:45;14.00;;;6.88;;
84254;SDS011;74400;44.692;18.998;2023-12-20T04:39:11;16.75;;;6.90;;
84254;SDS011;74400;44.692;18.998;2023-12-20T04:41:38;13.63;;;7.28;;
84254;SDS011;74400;44.692;18.998;2023-12-20T04:44:04;13.43;;;7.47;;
84254;SDS011;74400;44.692;18.998;2023-12-20T04:46:31;11.13;;;7.10;;
84254;SDS011;74400;44.692;18.998;2023-12-20T04:48:57;11.65;;;6.75;;
84254;SDS011;74400;44.692;18.998;2023-12-20T04:51:22;10.60;;;6.93;;
84254;SDS011;74400;44.692;18.998;2023-12-20T04:53:48;16.90;;;7.30;;
84254;SDS011;74400;44.692;18.998;2023-12-20T04:56:14;13.20;;;7.30;;
84254;SDS011;74400;44.692;18.998;2023-12-20T04:58:40;10.95;;;6.32;;
84254;SDS011;74400;44.692;18.998;2023-12-20T05:01:08;12.75;;;6.45;;
84254;SDS011;74400;44.692;18.998;2023-12-20T05:03:34;10.32;;;6.13;;
84254;SDS011;74400;44.692;18.998;2023-12-20T05:06:00;9.77;;;5.28;;
84254;SDS011;74400;44.692;18.998;2023-12-20T05:08:26;8.20;;;4.50;;
84254;SDS011;74400;44.692;18.998;2023-12-20T05:10:53;9.25;;;5.43;;
84254;SDS011;74400;44.692;18.998;2023-12-20T05:13:19;11.27;;;5.63;;
84254;SDS011;74400;44.692;18.998;2023-12-20T05:15:46;13.23;;;6.43;;
84254;SDS011;74400;44.692;18.998;2023-12-20T05:18:12;12.73;;;6.03;;
84254;SDS011;74400;44.692;18.998;2023-12-20T05:20:38;10.02;;;6.03;;
84254;SDS011;74400;44.692;18.998;2023-12-20T05:23:04;10.15;;;6.05;;
84254;SDS011;74400;44.692;18.998;2023-12-20T05:25:30;8.88;;;5.60;;
84254;SDS011;74400;44.692;18.998;2023-12-20T05:27:55;12.77;;;6.72;;
84254;SDS011;74400;44.692;18.998;2023-12-20T05:30:21;14.00;;;6.90;;
84254;SDS011;74400;44.692;18.998;2023-12-20T05:32:47;11.55;;;6.55;;
84254;SDS011;74400;44.692;18.998;2023-12-20T05:35:13;16.02;;;6.55;;
84254;SDS011;74400;44.692;18.998;2023-12-20T05:37:39;15.88;;;7.82;;
84254;SDS011;74400;44.692;18.998;2023-12-20T05:40:04;15.85;;;7.88;;
84254;SDS011;74400;44.692;18.998;2023-12-20T05:42:31;14.70;;;7.35;;
84254;SDS011;74400;44.692;18.998;2023-12-20T05:44:56;10.73;;;6.10;;
84254;SDS011;74400;44.692;18.998;2023-12-20T05:50:14;11.43;;;5.95;;
84254;SDS011;74400;44.692;18.998;2023-12-20T05:52:40;14.63;;;5.75;;
84254;SDS011;74400;44.692;18.998;2023-12-20T05:55:06;14.00;;;6.05;;
84254;SDS011;74400;44.692;18.998;2023-12-20T05:57:32;14.68;;;7.20;;
84254;SDS011;74400;44.692;18.998;2023-12-20T06:04:06;16.35;;;7.70;;
84254;SDS011;74400;44.692;18.998;2023-12-20T06:06:32;17.38;;;8.43;;
84254;SDS011;74400;44.692;18.998;2023-12-20T06:08:58;20.27;;;8.98;;
84254;SDS011;74400;44.692;18.998;2023-12-20T06:11:24;20.15;;;8.70;;
84254;SDS011;74400;44.692;18.998;2023-12-20T06:13:49;20.80;;;8.75;;
84254;SDS011;74400;44.692;18.998;2023-12-20T06:16:18;22.58;;;9.32;;
84254;SDS011;74400;44.692;18.998;2023-12-20T06:18:46;16.60;;;8.02;;
84254;SDS011;74400;44.692;18.998;2023-12-20T06:21:11;20.23;;;9.55;;
84254;SDS011;74400;44.692;18.998;2023-12-20T06:23:38;18.30;;;8.50;;
84254;SDS011;74400;44.692;18.998;2023-12-20T06:26:04;21.60;;;8.57;;
84254;SDS011;74400;44.692;18.998;2023-12-20T06:28:29;14.90;;;8.02;;
84254;SDS011;74400;44.692;18.998;2023-12-20T06:30:55;15.65;;;9.00;;
84254;SDS011;74400;44.692;18.998;2023-12-20T06:33:22;15.90;;;7.65;;
84254;SDS011;74400;44.692;18.998;2023-12-20T06:35:49;17.27;;;8.90;;
84254;SDS011;74400;44.692;18.998;2023-12-20T06:38:16;15.98;;;8.35;;
84254;SDS011;74400;44.692;18.998;2023-12-20T06:40:43;16.50;;;8.68;;
84254;SDS011;74400;44.692;18.998;2023-12-20T06:43:09;14.38;;;8.25;;
84254;SDS011;74400;44.692;18.998;2023-12-20T06:45:34;16.98;;;9.07;;
84254;SDS011;74400;44.692;18.998;2023-12-20T06:50:57;31.40;;;13.55;;
84254;SDS011;74400;44.692;18.998;2023-12-20T06:53:24;19.25;;;10.32;;
84254;SDS011;74400;44.692;18.998;2023-12-20T06:59:11;29.20;;;13.10;;
84254;SDS011;74400;44.692;18.998;2023-12-20T07:01:36;24.70;;;12.32;;
84254;SDS011;74400;44.692;18.998;2023-12-20T07:04:03;25.20;;;12.82;;
84254;SDS011;74400;44.692;18.998;2023-12-20T07:06:29;25.48;;;13.05;;
84254;SDS011;74400;44.692;18.998;2023-12-20T07:08:54;24.67;;;13.02;;
84254;SDS011;74400;44.692;18.998;2023-12-20T07:11:20;28.48;;;13.38;;
84254;SDS011;74400;44.692;18.998;2023-12-20T07:14:08;26.42;;;11.05;;
84254;SDS011;74400;44.692;18.998;2023-12-20T07:16:34;22.13;;;11.20;;
84254;SDS011;74400;44.692;18.998;2023-12-20T07:19:00;23.33;;;11.77;;
84254;SDS011;74400;44.692;18.998;2023-12-20T07:21:25;23.13;;;12.27;;
84254;SDS011;74400;44.692;18.998;2023-12-20T07:23:51;21.45;;;12.57;;
84254;SDS011;74400;44.692;18.998;2023-12-20T07:26:17;27.92;;;14.57;;
84254;SDS011;74400;44.692;18.998;2023-12-20T07:28:43;23.77;;;14.32;;
84254;SDS011;74400;44.692;18.998;2023-12-20T07:31:08;25.17;;;12.75;;
84254;SDS011;74400;44.692;18.998;2023-12-20T07:33:34;27.38;;;12.93;;
84254;SDS011;74400;44.692;18.998;2023-12-20T07:36:00;24.20;;;12.00;;
84254;SDS011;74400;44.692;18.998;2023-12-20T07:38:28;22.90;;;11.02;;
84254;SDS011;74400;44.692;18.998;2023-12-20T07:41:00;20.95;;;12.07;;
84254;SDS011;74400;44.692;18.998;2023-12-20T07:46:27;21.30;;;12.27;;
84254;SDS011;74400;44.692;18.998;2023-12-20T07:48:52;24.63;;;15.27;;
84254;SDS011;74400;44.692;18.998;2023-12-20T07:51:25;24.92;;;14.40;;
84254;SDS011;74400;44.692;18.998;2023-12-20T07:53:53;23.60;;;12.48;;
84254;SDS011;74400;44.692;18.998;2023-12-20T07:56:19;30.23;;;16.35;;
84254;SDS011;74400;44.692;18.998;2023-12-20T07:58:46;34.17;;;17.23;;
84254;SDS011;74400;44.692;18.998;2023-12-20T08:01:13;25.15;;;14.52;;
84254;SDS011;74400;44.692;18.998;2023-12-20T08:03:41;23.30;;;15.40;;
84254;SDS011;74400;44.692;18.998;2023-12-20T08:06:06;25.42;;;14.00;;
84254;SDS011;74400;44.692;18.998;2023-12-20T08:08:32;24.10;;;13.85;;
84254;SDS011;74400;44.692;18.998;2023-12-20T08:11:01;21.25;;;14.35;;
84254;SDS011;74400;44.692;18.998;2023-12-20T08:13:27;20.38;;;12.48;;
84254;SDS011;74400;44.692;18.998;2023-12-20T08:15:53;22.05;;;13.02;;
84254;SDS011;74400;44.692;18.998;2023-12-20T08:18:25;19.80;;;12.60;;
84254;SDS011;74400;44.692;18.998;2023-12-20T08:20:51;21.92;;;12.98;;
84254;SDS011;74400;44.692;18.998;2023-12-20T08:26:08;29.52;;;15.30;;
84254;SDS011;74400;44.692;18.998;2023-12-20T08:28:36;20.35;;;12.57;;
84254;SDS011;74400;44.692;18.998;2023-12-20T08:31:02;17.70;;;12.05;;
84254;SDS011;74400;44.692;18.998;2023-12-20T08:33:27;14.15;;;10.88;;
84254;SDS011;74400;44.692;18.998;2023-12-20T08:35:53;18.05;;;12.10;;
84254;SDS011;74400;44.692;18.998;2023-12-20T08:38:19;21.52;;;14.38;;
84254;SDS011;74400;44.692;18.998;2023-12-20T08:44:08;14.10;;;10.05;;
84254;SDS011;74400;44.692;18.998;2023-12-20T08:46:34;14.52;;;10.68;;
84254;SDS011;74400;44.692;18.998;2023-12-20T08:49:00;15.43;;;10.65;;
84254;SDS011;74400;44.692;18.998;2023-12-20T08:51:26;16.90;;;11.52;;
84254;SDS011;74400;44.692;18.998;2023-12-20T08:53:53;13.30;;;10.90;;
84254;SDS011;74400;44.692;18.998;2023-12-20T08:56:19;17.10;;;12.52;;
84254;SDS011;74400;44.692;18.998;2023-12-20T08:58:45;20.35;;;12.52;;
84254;SDS011;74400;44.692;18.998;2023-12-20T09:01:12;16.90;;;12.10;;
84254;SDS011;74400;44.692;18.998;2023-12-20T09:03:39;17.60;;;12.55;;
84254;SDS011;74400;44.692;18.998;2023-12-20T09:06:05;16.40;;;11.27;;
84254;SDS011;74400;44.692;18.998;2023-12-20T09:08:30;20.25;;;12.98;;
84254;SDS011;74400;44.692;18.998;2023-12-20T09:10:56;19.05;;;13.10;;
84254;SDS011;74400;44.692;18.998;2023-12-20T09:20:11;20.17;;;13.85;;
84254;SDS011;74400;44.692;18.998;2023-12-20T09:22:41;22.60;;;15.07;;
84254;SDS011;74400;44.692;18.998;2023-12-20T09:25:07;23.42;;;15.40;;
84254;SDS011;74400;44.692;18.998;2023-12-20T09:31:05;26.73;;;17.88;;
84254;SDS011;74400;44.692;18.998;2023-12-20T09:33:34;27.92;;;17.85;;
84254;SDS011;74400;44.692;18.998;2023-12-20T09:36:03;41.55;;;24.85;;
84254;SDS011;74400;44.692;18.998;2023-12-20T09:38:30;49.85;;;28.15;;
84254;SDS011;74400;44.692;18.998;2023-12-20T09:40:56;72.90;;;41.25;;
84254;SDS011;74400;44.692;18.998;2023-12-20T09:43:23;81.00;;;47.10;;
84254;SDS011;74400;44.692;18.998;2023-12-20T09:45:54;106.18;;;59.28;;
84254;SDS011;74400;44.692;18.998;2023-12-20T09:48:27;90.22;;;51.05;;
84254;SDS011;74400;44.692;18.998;2023-12-20T09:50:54;102.07;;;53.78;;
84254;SDS011;74400;44.692;18.998;2023-12-20T09:53:20;100.53;;;55.60;;
84254;SDS011;74400;44.692;18.998;2023-12-20T09:55:48;111.72;;;61.38;;
84254;SDS011;74400;44.692;18.998;2023-12-20T09:58:14;112.75;;;61.55;;
84254;SDS011;74400;44.692;18.998;2023-12-20T10:00:41;100.05;;;56.75;;
84254;SDS011;74400;44.692;18.998;2023-12-20T10:03:06;102.00;;;56.92;;
84254;SDS011;74400;44.692;18.998;2023-12-20T10:05:34;99.78;;;54.35;;
84254;SDS011;74400;44.692;18.998;2023-12-20T10:08:00;88.88;;;50.20;;
84254;SDS011;74400;44.692;18.998;2023-12-20T10:10:27;84.38;;;50.45;;
84254;SDS011;74400;44.692;18.998;2023-12-20T10:13:02;92.97;;;51.60;;
84254;SDS011;74400;44.692;18.998;2023-12-20T10:15:36;90.18;;;50.50;;
84254;SDS011;74400;44.692;18.998;2023-12-20T10:24:33;89.40;;;45.90;;
84254;SDS011;74400;44.692;18.998;2023-12-20T10:27:02;77.45;;;43.15;;
84254;SDS011;74400;44.692;18.998;2023-12-20T10:29:35;81.05;;;46.15;;
84254;SDS011;74400;44.692;18.998;2023-12-20T10:35:02;81.43;;;45.50;;
84254;SDS011;74400;44.692;18.998;2023-12-20T10:37:37;86.50;;;44.53;;
84254;SDS011;74400;44.692;18.998;2023-12-20T10:40:03;74.07;;;40.80;;
84254;SDS011;74400;44.692;18.998;2023-12-20T10:42:31;77.30;;;41.13;;
84254;SDS011;74400;44.692;18.998;2023-12-20T10:45:05;75.85;;;42.03;;
84254;SDS011;74400;44.692;18.998;2023-12-20T10:47:31;65.18;;;37.70;;
84254;SDS011;74400;44.692;18.998;2023-12-20T10:49:58;68.82;;;38.63;;
84254;SDS011;74400;44.692;18.998;2023-12-20T10:52:25;67.80;;;39.83;;
84254;SDS011;74400;44.692;18.998;2023-12-20T10:54:53;69.90;;;40.00;;
84254;SDS011;74400;44.692;18.998;2023-12-20T10:57:19;70.28;;;40.70;;
84254;SDS011;74400;44.692;18.998;2023-12-20T10:59:48;76.80;;;40.00;;
84254;SDS011;74400;44.692;18.998;2023-12-20T11:02:17;72.63;;;40.70;;
84254;SDS011;74400;44.692;18.998;2023-12-20T11:04:44;75.97;;;40.22;;
84254;SDS011;74400;44.692;18.998;2023-12-20T11:11:26;72.68;;;39.72;;
84254;SDS011;74400;44.692;18.998;2023-12-20T11:14:01;68.97;;;39.13;;
84254;SDS011;74400;44.692;18.998;2023-12-20T11:16:37;66.70;;;37.13;;
84254;SDS011;74400;44.692;18.998;2023-12-20T11:23:08;58.97;;;33.95;;
84254;SDS011;74400;44.692;18.998;2023-12-20T11:28:09;58.53;;;33.97;;
84254;SDS011;74400;44.692;18.998;2023-12-20T11:33:08;60.05;;;33.28;;
84254;SDS011;74400;44.692;18.998;2023-12-20T11:35:34;57.35;;;34.00;;
84254;SDS011;74400;44.692;18.998;2023-12-20T11:38:02;67.95;;;37.60;;
84254;SDS011;74400;44.692;18.998;2023-12-20T11:40:28;66.38;;;36.45;;
84254;SDS011;74400;44.692;18.998;2023-12-20T11:42:59;67.15;;;38.42;;
84254;SDS011;74400;44.692;18.998;2023-12-20T11:45:25;65.70;;;37.63;;
84254;SDS011;74400;44.692;18.998;2023-12-20T11:47:52;75.90;;;40.65;;
84254;SDS011;74400;44.692;18.998;2023-12-20T11:50:21;72.72;;;41.05;;
84254;SDS011;74400;44.692;18.998;2023-12-20T11:52:48;74.45;;;42.22;;
84254;SDS011;74400;44.692;18.998;2023-12-20T11:55:14;73.65;;;41.05;;
84254;SDS011;74400;44.692;18.998;2023-12-20T12:01:09;74.72;;;42.10;;
84254;SDS011;74400;44.692;18.998;2023-12-20T12:03:37;86.60;;;46.15;;
84254;SDS011;74400;44.692;18.998;2023-12-20T12:06:07;83.70;;;45.58;;
84254;SDS011;74400;44.692;18.998;2023-12-20T12:08:33;85.75;;;46.78;;
84254;SDS011;74400;44.692;18.998;2023-12-20T12:13:47;80.30;;;44.20;;
84254;SDS011;74400;44.692;18.998;2023-12-20T12:16:13;90.13;;;48.55;;
84254;SDS011;74400;44.692;18.998;2023-12-20T12:18:43;75.00;;;43.30;;
84254;SDS011;74400;44.692;18.998;2023-12-20T12:21:09;80.97;;;44.38;;
84254;SDS011;74400;44.692;18.998;2023-12-20T12:23:35;76.07;;;43.60;;
84254;SDS011;74400;44.692;18.998;2023-12-20T12:26:03;74.97;;;42.42;;
84254;SDS011;74400;44.692;18.998;2023-12-20T12:28:29;77.75;;;43.10;;
84254;SDS011;74400;44.692;18.998;2023-12-20T12:30:57;74.68;;;41.03;;
84254;SDS011;74400;44.692;18.998;2023-12-20T12:33:27;76.88;;;43.33;;
84254;SDS011;74400;44.692;18.998;2023-12-20T12:35:53;73.18;;;42.33;;
84254;SDS011;74400;44.692;18.998;2023-12-20T12:38:20;76.57;;;44.35;;
84254;SDS011;74400;44.692;18.998;2023-12-20T12:40:46;80.07;;;44.60;;
84254;SDS011;74400;44.692;18.998;2023-12-20T12:43:12;75.95;;;42.50;;
84254;SDS011;74400;44.692;18.998;2023-12-20T12:45:38;72.53;;;40.63;;
84254;SDS011;74400;44.692;18.998;2023-12-20T12:48:04;57.55;;;34.65;;
84254;SDS011;74400;44.692;18.998;2023-12-20T12:50:32;63.20;;;35.95;;
84254;SDS011;74400;44.692;18.998;2023-12-20T12:52:57;59.40;;;35.83;;
84254;SDS011;74400;44.692;18.998;2023-12-20T12:55:32;55.03;;;31.27;;
84254;SDS011;74400;44.692;18.998;2023-12-20T12:57:59;56.28;;;33.30;;
84254;SDS011;74400;44.692;18.998;2023-12-20T13:00:28;46.88;;;29.52;;
84254;SDS011;74400;44.692;18.998;2023-12-20T13:02:54;52.25;;;32.67;;
84254;SDS011;74400;44.692;18.998;2023-12-20T13:05:20;56.13;;;31.48;;
84254;SDS011;74400;44.692;18.998;2023-12-20T13:07:45;49.50;;;30.30;;
84254;SDS011;74400;44.692;18.998;2023-12-20T13:10:11;57.30;;;32.85;;
84254;SDS011;74400;44.692;18.998;2023-12-20T13:16:09;55.78;;;30.55;;
84254;SDS011;74400;44.692;18.998;2023-12-20T13:18:36;56.20;;;30.75;;
84254;SDS011;74400;44.692;18.998;2023-12-20T13:21:02;50.28;;;29.85;;
84254;SDS011;74400;44.692;18.998;2023-12-20T13:23:28;50.33;;;29.30;;
84254;SDS011;74400;44.692;18.998;2023-12-20T13:25:54;50.60;;;28.73;;
84254;SDS011;74400;44.692;18.998;2023-12-20T13:28:20;52.97;;;28.88;;
84254;SDS011;74400;44.692;18.998;2023-12-20T13:30:45;53.10;;;29.25;;
84254;SDS011;74400;44.692;18.998;2023-12-20T13:33:11;54.85;;;28.77;;
84254;SDS011;74400;44.692;18.998;2023-12-20T13:35:37;51.00;;;28.02;;
84254;SDS011;74400;44.692;18.998;2023-12-20T13:38:03;48.63;;;27.45;;
84254;SDS011;74400;44.692;18.998;2023-12-20T13:40:30;50.83;;;30.38;;
84254;SDS011;74400;44.692;18.998;2023-12-20T13:42:57;48.78;;;27.77;;
84254;SDS011;74400;44.692;18.998;2023-12-20T13:45:23;47.38;;;27.88;;
84254;SDS011;74400;44.692;18.998;2023-12-20T13:47:50;46.00;;;25.73;;
84254;SDS011;74400;44.692;18.998;2023-12-20T13:50:16;44.25;;;24.92;;
84254;SDS011;74400;44.692;18.998;2023-12-20T13:52:43;43.03;;;26.45;;
84254;SDS011;74400;44.692;18.998;2023-12-20T13:55:09;45.97;;;26.05;;
84254;SDS011;74400;44.692;18.998;2023-12-20T13:57:35;42.15;;;25.08;;
84254;SDS011;74400;44.692;18.998;2023-12-20T14:00:03;44.47;;;26.70;;
84254;SDS011;74400;44.692;18.998;2023-12-20T14:02:32;45.35;;;27.17;;
84254;SDS011;74400;44.692;18.998;2023-12-20T14:04:58;44.35;;;26.98;;
84254;SDS011;74400;44.692;18.998;2023-12-20T14:07:23;44.00;;;26.45;;
84254;SDS011;74400;44.692;18.998;2023-12-20T14:09:49;45.20;;;27.60;;
84254;SDS011;74400;44.692;18.998;2023-12-20T14:18:36;46.90;;;27.88;;
84254;SDS011;74400;44.692;18.998;2023-12-20T14:21:01;54.20;;;30.58;;
84254;SDS011;74400;44.692;18.998;2023-12-20T14:23:28;48.22;;;28.30;;
84254;SDS011;74400;44.692;18.998;2023-12-20T14:25:54;49.95;;;28.48;;
84254;SDS011;74400;44.692;18.998;2023-12-20T14:28:32;44.58;;;28.52;;
84254;SDS011;74400;44.692;18.998;2023-12-20T14:30:57;47.70;;;28.55;;
84254;SDS011;74400;44.692;18.998;2023-12-20T14:33:23;52.78;;;31.00;;
84254;SDS011;74400;44.692;18.998;2023-12-20T14:35:53;54.15;;;30.17;;
84254;SDS011;74400;44.692;18.998;2023-12-20T14:38:19;56.97;;;33.15;;
84254;SDS011;74400;44.692;18.998;2023-12-20T14:40:45;59.70;;;33.70;;
84254;SDS011;74400;44.692;18.998;2023-12-20T14:43:10;71.32;;;38.88;;
84254;SDS011;74400;44.692;18.998;2023-12-20T14:45:37;61.95;;;35.90;;
84254;SDS011;74400;44.692;18.998;2023-12-20T14:48:02;57.97;;;33.45;;
84254;SDS011;74400;44.692;18.998;2023-12-20T14:50:28;54.03;;;30.50;;
84254;SDS011;74400;44.692;18.998;2023-12-20T14:52:54;48.05;;;29.08;;
84254;SDS011;74400;44.692;18.998;2023-12-20T14:55:21;49.03;;;29.70;;
84254;SDS011;74400;44.692;18.998;2023-12-20T14:57:46;40.00;;;21.98;;
84254;SDS011;74400;44.692;18.998;2023-12-20T15:00:12;36.53;;;21.60;;
84254;SDS011;74400;44.692;18.998;2023-12-20T15:02:43;44.40;;;25.40;;
84254;SDS011;74400;44.692;18.998;2023-12-20T15:05:09;40.60;;;24.20;;
84254;SDS011;74400;44.692;18.998;2023-12-20T15:07:34;47.45;;;25.30;;
84254;SDS011;74400;44.692;18.998;2023-12-20T15:10:01;51.63;;;29.70;;
84254;SDS011;74400;44.692;18.998;2023-12-20T15:12:27;55.10;;;31.25;;
84254;SDS011;74400;44.692;18.998;2023-12-20T15:14:53;56.60;;;31.50;;
84254;SDS011;74400;44.692;18.998;2023-12-20T15:17:19;51.70;;;29.90;;
84254;SDS011;74400;44.692;18.998;2023-12-20T15:19:44;44.00;;;24.77;;
84254;SDS011;74400;44.692;18.998;2023-12-20T15:22:10;32.55;;;20.65;;
84254;SDS011;74400;44.692;18.998;2023-12-20T15:24:36;38.08;;;22.15;;